createdAt,value
2023-04-18T00:00:39.867Z,2.40
2023-04-18T00:03:11.362Z,2.42
2023-04-18T00:05:42.265Z,1.83
2023-04-18T00:08:15.057Z,1.02
2023-04-18T00:10:45.403Z,0.90
2023-04-18T00:13:15.741Z,4.05
2023-04-18T00:15:47.360Z,1.48
2023-04-18T00:18:19.285Z,2.08
2023-04-18T00:20:50.176Z,2.17
2023-04-18T00:23:23.199Z,0.85
2023-04-18T00:25:53.993Z,1.30
2023-04-18T00:28:24.776Z,3.65
2023-04-18T00:30:55.525Z,3.63
2023-04-18T00:33:27.412Z,3.25
2023-04-18T00:35:59.464Z,1.55
2023-04-18T00:38:30.346Z,1.67
2023-04-18T00:41:01.194Z,3.80
2023-04-18T00:43:32.427Z,1.02
2023-04-18T00:46:04.381Z,1.98
2023-04-18T00:48:37.126Z,2.38
2023-04-18T00:51:09.956Z,2.28
2023-04-18T00:53:40.825Z,3.53
2023-04-18T00:56:11.751Z,2.13
2023-04-18T00:58:42.657Z,1.95
2023-04-18T01:01:13.370Z,2.25
2023-04-18T01:03:44.370Z,1.85
2023-04-18T01:06:15.443Z,3.33
2023-04-18T01:08:47.216Z,2.15
2023-04-18T01:11:17.901Z,1.70
2023-04-18T01:14:03.135Z,2.50
2023-04-18T01:16:36.831Z,0.47
2023-04-18T01:19:08.710Z,1.55
2023-04-18T01:21:39.599Z,5.30
2023-04-18T01:24:15.921Z,2.33
2023-04-18T01:26:51.720Z,0.50
2023-04-18T01:29:22.421Z,1.75
2023-04-18T01:31:52.821Z,1.63
2023-04-18T01:34:23.460Z,1.25
2023-04-18T01:36:54.367Z,3.22
2023-04-18T01:39:25.228Z,1.75
2023-04-18T01:41:55.885Z,2.53
2023-04-18T01:44:26.402Z,3.35
2023-04-18T01:46:57.129Z,1.75
2023-04-18T01:49:27.462Z,3.33
2023-04-18T01:51:57.846Z,1.33
2023-04-18T01:54:28.461Z,2.60
2023-04-18T01:57:00.050Z,0.65
2023-04-18T01:59:34.720Z,2.80
2023-04-18T02:02:05.495Z,0.47
2023-04-18T02:04:35.767Z,1.58
2023-04-18T02:07:06.457Z,3.15
2023-04-18T02:09:36.667Z,2.78
2023-04-18T02:12:07.331Z,0.80
2023-04-18T02:14:38.857Z,1.65
2023-04-18T02:17:09.516Z,1.38
2023-04-18T02:19:39.947Z,0.90
2023-04-18T02:22:10.582Z,2.17
2023-04-18T02:24:40.824Z,2.85
2023-04-18T02:27:12.918Z,1.17
2023-04-18T02:29:43.518Z,0.95
2023-04-18T02:32:13.791Z,1.92
2023-04-18T02:34:44.029Z,0.40
2023-04-18T02:37:14.380Z,1.33
2023-04-18T02:39:44.641Z,2.30
2023-04-18T02:42:15.082Z,1.33
2023-04-18T02:44:45.313Z,0.35
2023-04-18T02:47:16.350Z,0.20
2023-04-18T02:49:46.595Z,0.65
2023-04-18T02:52:17.888Z,1.30
2023-04-18T02:54:48.150Z,1.35
2023-04-18T02:57:18.852Z,0.45
2023-04-18T02:59:49.049Z,3.30
2023-04-18T03:02:21.224Z,0.85
2023-04-18T03:04:51.647Z,1.95
2023-04-18T03:07:25.978Z,1.23
2023-04-18T03:09:56.712Z,2.70
2023-04-18T03:12:30.945Z,1.17
2023-04-18T03:15:01.310Z,0.38
2023-04-18T03:17:32.025Z,1.67
2023-04-18T03:20:02.605Z,0.90
2023-04-18T03:22:33.321Z,1.75
2023-04-18T03:25:03.854Z,0.80
2023-04-18T03:27:34.947Z,1.98
2023-04-18T03:30:05.570Z,4.40
2023-04-18T03:32:37.368Z,0.13
2023-04-18T03:35:08.325Z,2.90
2023-04-18T03:37:39.080Z,0.50
2023-04-18T03:40:10.098Z,0.85
2023-04-18T03:42:40.744Z,1.27
2023-04-18T03:45:12.030Z,0.90
2023-04-18T03:47:42.514Z,2.20
2023-04-18T03:50:13.128Z,1.65
2023-04-18T03:52:44.574Z,1.38
2023-04-18T03:55:18.177Z,0.70
2023-04-18T03:57:49.607Z,0.90
2023-04-18T04:00:20.056Z,1.02
2023-04-18T04:02:51.681Z,1.83
2023-04-18T04:05:22.176Z,0.57
2023-04-18T04:07:52.586Z,1.35
2023-04-18T04:10:22.916Z,0.50
2023-04-18T04:12:53.618Z,1.52
2023-04-18T04:15:25.494Z,0.70
2023-04-18T04:17:56.588Z,0.95
2023-04-18T04:20:28.183Z,1.35
2023-04-18T04:23:00.982Z,1.85
2023-04-18T04:25:31.519Z,0.60
2023-04-18T04:28:04.961Z,0.10
2023-04-18T04:30:35.828Z,1.15
2023-04-18T04:33:07.008Z,1.40
2023-04-18T04:35:38.845Z,0.95
2023-04-18T04:38:10.597Z,0.68
2023-04-18T04:40:41.013Z,0.30
2023-04-18T04:43:16.969Z,0.93
2023-04-18T04:45:47.585Z,0.60
2023-04-18T04:48:18.857Z,1.30
2023-04-18T04:50:56.887Z,0.60
2023-04-18T04:53:35.413Z,0.63
2023-04-18T04:56:11.206Z,1.13
2023-04-18T04:58:43.934Z,0.60
2023-04-18T05:01:15.327Z,1.05
2023-04-18T05:04:09.964Z,2.15
2023-04-18T05:06:41.096Z,1.58
2023-04-18T05:09:11.904Z,0.95
2023-04-18T05:11:42.245Z,0.73
2023-04-18T05:14:20.009Z,2.75
2023-04-18T05:16:50.421Z,2.33
2023-04-18T05:19:21.253Z,2.67
2023-04-18T05:21:51.427Z,0.32
2023-04-18T05:24:21.827Z,1.08
2023-04-18T05:26:52.936Z,1.55
2023-04-18T05:29:23.914Z,0.73
2023-04-18T05:31:56.222Z,0.32
2023-04-18T05:34:27.799Z,0.98
2023-04-18T05:37:04.124Z,1.83
2023-04-18T05:42:18.627Z,1.13
2023-04-18T05:44:50.436Z,0.73
2023-04-18T05:47:21.230Z,0.68
2023-04-18T05:49:52.242Z,2.38
2023-04-18T05:52:23.298Z,2.17
2023-04-18T05:54:56.217Z,0.47
2023-04-18T05:57:35.463Z,0.50
2023-04-18T06:00:09.127Z,1.80
2023-04-18T06:02:40.976Z,1.23
2023-04-18T06:05:22.178Z,1.90
2023-04-18T06:07:54.068Z,1.15
2023-04-18T06:10:25.966Z,1.98
2023-04-18T06:12:56.879Z,1.65
2023-04-18T06:15:28.852Z,2.10
2023-04-18T06:17:59.080Z,0.25
2023-04-18T06:20:30.062Z,1.45
2023-04-18T06:23:00.373Z,0.88
2023-04-18T06:25:32.478Z,0.40
2023-04-18T06:28:03.287Z,0.63
2023-04-18T06:30:42.443Z,1.65
2023-04-18T06:33:17.491Z,0.93
2023-04-18T06:35:49.926Z,2.00
2023-04-18T06:38:30.488Z,0.77
2023-04-18T06:41:01.496Z,0.95
2023-04-18T06:43:38.013Z,4.25
2023-04-18T06:51:27.796Z,1.25
2023-04-18T06:54:05.383Z,0.82
2023-04-18T06:56:39.280Z,0.47
2023-04-18T06:59:14.343Z,0.43
2023-04-18T07:01:45.647Z,1.73
2023-04-18T07:04:21.157Z,3.92
2023-04-18T07:06:52.071Z,1.13
2023-04-18T07:09:23.185Z,2.17
2023-04-18T07:11:54.796Z,0.30
2023-04-18T07:14:28.482Z,3.00
2023-04-18T07:16:59.814Z,1.63
2023-04-18T07:19:30.604Z,0.93
2023-04-18T07:22:03.916Z,1.65
2023-04-18T07:24:34.598Z,2.50
2023-04-18T07:27:06.330Z,1.10
2023-04-18T07:29:37.139Z,0.20
2023-04-18T07:32:08.345Z,1.67
2023-04-18T07:34:39.835Z,0.95
2023-04-18T07:37:11.632Z,4.53
2023-04-18T07:39:44.817Z,1.05
2023-04-18T07:42:16.607Z,0.95
2023-04-18T07:44:47.734Z,1.52
2023-04-18T07:47:22.441Z,0.60
2023-04-18T07:49:57.087Z,4.43
2023-04-18T07:52:31.998Z,1.50
2023-04-18T07:55:05.716Z,3.38
2023-04-18T07:57:37.057Z,4.65
2023-04-18T08:00:13.974Z,4.35
2023-04-18T08:02:46.081Z,5.65
2023-04-18T08:05:19.224Z,6.18
2023-04-18T08:07:49.931Z,5.55
2023-04-18T08:10:23.185Z,4.05
2023-04-18T08:12:56.293Z,4.32
2023-04-18T08:15:28.847Z,4.43
2023-04-18T08:17:59.753Z,8.68
2023-04-18T08:20:31.477Z,4.70
2023-04-18T08:23:08.693Z,5.10
2023-04-18T08:25:43.841Z,3.58
2023-04-18T08:28:15.494Z,4.25
2023-04-18T08:30:50.819Z,3.78
2023-04-18T08:33:26.954Z,3.92
2023-04-18T08:35:58.024Z,3.45
2023-04-18T08:38:30.938Z,4.57
2023-04-18T08:41:01.679Z,5.75
2023-04-18T08:43:33.424Z,4.45
2023-04-18T08:46:05.069Z,2.97
2023-04-18T08:48:36.090Z,4.80
2023-04-18T08:51:09.533Z,4.60
2023-04-18T08:53:41.398Z,6.10
2023-04-18T08:56:17.848Z,5.82
2023-04-18T08:58:48.757Z,9.30
2023-04-18T09:01:20.072Z,7.60
2023-04-18T09:03:52.024Z,8.48
2023-04-18T09:06:25.168Z,7.43
2023-04-18T09:09:01.548Z,7.93
2023-04-18T09:11:34.501Z,8.23
2023-04-18T09:14:05.632Z,8.70
2023-04-18T09:16:53.854Z,9.88
2023-04-18T09:19:28.546Z,12.98
2023-04-18T09:22:10.062Z,8.52
2023-04-18T09:24:44.383Z,9.55
2023-04-18T09:27:18.779Z,10.10
2023-04-18T09:29:58.524Z,7.43
2023-04-18T09:32:31.421Z,10.77
2023-04-18T09:35:07.412Z,8.85
2023-04-18T09:37:43.590Z,11.48
2023-04-18T09:40:23.874Z,7.78
2023-04-18T09:42:59.498Z,11.57
2023-04-18T09:45:32.155Z,9.10
2023-04-18T09:48:03.193Z,7.57
2023-04-18T09:50:36.303Z,8.38
2023-04-18T09:53:08.449Z,7.38
2023-04-18T09:55:39.182Z,7.93
2023-04-18T09:58:12.464Z,6.95
2023-04-18T10:00:46.800Z,8.45
2023-04-18T10:03:20.153Z,7.55
2023-04-18T10:05:51.265Z,8.25
2023-04-18T10:08:37.239Z,10.40
2023-04-18T10:11:09.208Z,9.02
2023-04-18T10:13:44.930Z,8.45
2023-04-18T10:16:26.321Z,11.07
2023-04-18T10:18:58.727Z,9.95
2023-04-18T10:24:51.051Z,10.07
2023-04-18T10:27:46.267Z,7.15
2023-04-18T10:30:18.178Z,7.78
2023-04-18T10:32:57.623Z,9.15
2023-04-18T10:35:32.264Z,8.02
2023-04-18T10:38:05.621Z,10.07
2023-04-18T10:40:37.721Z,9.05
2023-04-18T10:43:21.620Z,7.88
2023-04-18T10:46:27.955Z,12.77
2023-04-18T10:49:27.359Z,15.85
2023-04-18T10:52:05.735Z,22.13
2023-04-18T10:54:57.705Z,20.77
2023-04-18T10:57:53.903Z,19.70
2023-04-18T11:00:27.464Z,18.63
2023-04-18T11:03:01.100Z,28.77
2023-04-18T11:05:32.629Z,22.17
2023-04-18T11:08:04.648Z,18.25
2023-04-18T11:10:35.352Z,14.65
2023-04-18T11:13:12.919Z,14.70
2023-04-18T11:15:44.671Z,10.32
2023-04-18T11:18:15.233Z,8.00
2023-04-18T11:20:54.664Z,6.53
2023-04-18T11:23:27.019Z,6.38
2023-04-18T11:25:58.763Z,7.32
2023-04-18T11:28:30.721Z,7.22
2023-04-18T11:31:04.905Z,6.50
2023-04-18T11:33:35.987Z,6.88
2023-04-18T11:36:07.729Z,9.55
2023-04-18T11:38:39.853Z,8.40
2023-04-18T11:41:16.714Z,8.15
2023-04-18T11:46:18.556Z,9.32
2023-04-18T11:48:49.897Z,9.93
2023-04-18T11:51:38.458Z,6.95
2023-04-18T11:54:29.373Z,7.13
2023-04-18T11:57:00.503Z,8.15
2023-04-18T11:59:31.708Z,7.15
2023-04-18T12:02:16.174Z,8.40
2023-04-18T12:05:18.404Z,8.88
2023-04-18T12:07:49.544Z,6.10
2023-04-18T12:10:32.390Z,9.65
2023-04-18T12:13:04.800Z,22.77
2023-04-18T12:15:36.133Z,9.40
2023-04-18T12:18:09.784Z,7.28
2023-04-18T12:20:41.315Z,8.60
2023-04-18T12:23:11.686Z,7.07
2023-04-18T12:25:42.144Z,9.93
2023-04-18T12:28:20.250Z,9.60
2023-04-18T12:30:50.572Z,8.57
2023-04-18T12:33:21.372Z,10.25
2023-04-18T12:35:51.999Z,10.40
2023-04-18T12:38:29.715Z,8.00
2023-04-18T12:41:00.912Z,6.68
2023-04-18T12:43:31.403Z,7.78
2023-04-18T12:46:03.518Z,9.55
2023-04-18T12:48:33.935Z,7.97
2023-04-18T12:51:04.545Z,11.45
2023-04-18T12:53:35.330Z,9.30
2023-04-18T12:56:06.181Z,10.48
2023-04-18T12:58:37.784Z,8.13
2023-04-18T13:01:09.517Z,7.43
2023-04-18T13:03:40.128Z,7.10
2023-04-18T13:06:11.181Z,6.45
2023-04-18T13:08:41.430Z,8.27
2023-04-18T13:11:12.229Z,7.28
2023-04-18T13:13:42.941Z,4.68
2023-04-18T13:16:14.804Z,5.40
2023-04-18T13:18:45.869Z,5.47
2023-04-18T13:21:16.562Z,5.30
2023-04-18T13:23:47.389Z,5.25
2023-04-18T13:26:18.195Z,7.63
2023-04-18T13:28:48.382Z,7.18
2023-04-18T13:31:19.011Z,4.70
2023-04-18T13:33:49.304Z,4.57
2023-04-18T13:36:19.731Z,6.15
2023-04-18T13:38:50.873Z,7.88
2023-04-18T13:41:21.203Z,6.82
2023-04-18T13:43:51.539Z,5.68
2023-04-18T13:46:22.558Z,6.30
2023-04-18T13:48:52.975Z,5.68
2023-04-18T13:51:23.257Z,10.95
2023-04-18T13:53:54.273Z,6.88
2023-04-18T13:56:24.590Z,5.07
2023-04-18T13:58:55.176Z,6.93
2023-04-18T14:01:25.923Z,4.90
2023-04-18T14:03:56.465Z,5.07
2023-04-18T14:06:29.349Z,4.80
2023-04-18T14:09:00.870Z,5.43
2023-04-18T14:11:31.190Z,6.85
2023-04-18T14:14:01.508Z,6.03
2023-04-18T14:16:33.748Z,5.25
2023-04-18T14:19:04.150Z,4.28
2023-04-18T14:21:34.483Z,11.20
2023-04-18T14:24:06.110Z,6.35
2023-04-18T14:26:37.434Z,4.82
2023-04-18T14:29:08.327Z,4.30
2023-04-18T14:31:39.070Z,6.43
2023-04-18T14:34:11.696Z,5.15
2023-04-18T14:36:43.940Z,4.15
2023-04-18T14:39:15.412Z,5.93
2023-04-18T14:41:47.398Z,5.68
2023-04-18T14:44:19.351Z,4.80
2023-04-18T14:46:50.081Z,5.38
2023-04-18T14:49:20.400Z,5.30
2023-04-18T14:51:50.671Z,6.40
2023-04-18T14:54:21.419Z,4.22
2023-04-18T14:56:51.697Z,6.88
2023-04-18T14:59:21.910Z,6.85
2023-04-18T15:01:52.556Z,4.90
2023-04-18T15:04:23.237Z,4.90
2023-04-18T15:06:53.662Z,3.35
2023-04-18T15:09:24.453Z,4.97
2023-04-18T15:11:55.942Z,5.05
2023-04-18T15:14:26.230Z,3.78
2023-04-18T15:16:56.545Z,3.60
2023-04-18T15:19:26.874Z,5.30
2023-04-18T15:21:57.289Z,4.63
2023-04-18T15:24:27.611Z,5.07
2023-04-18T15:26:59.103Z,4.68
2023-04-18T15:29:29.313Z,6.22
2023-04-18T15:31:59.947Z,5.97
2023-04-18T15:34:30.197Z,3.70
2023-04-18T15:37:00.369Z,7.30
2023-04-18T15:39:30.717Z,7.75
2023-04-18T15:42:00.966Z,8.52
2023-04-18T15:44:32.440Z,4.78
2023-04-18T15:47:03.404Z,4.68
2023-04-18T15:49:34.155Z,6.90
2023-04-18T15:52:05.963Z,7.32
2023-04-18T15:54:37.392Z,7.35
2023-04-18T15:57:07.858Z,6.25
2023-04-18T15:59:39.101Z,5.30
2023-04-18T16:02:10.802Z,5.93
2023-04-18T16:04:41.192Z,7.30
2023-04-18T16:07:11.540Z,7.10
2023-04-18T16:09:41.742Z,10.77
2023-04-18T16:12:12.000Z,6.22
2023-04-18T16:14:42.787Z,6.13
2023-04-18T16:17:14.167Z,5.18
2023-04-18T16:19:44.698Z,6.70
2023-04-18T16:22:16.779Z,7.82
2023-04-18T16:24:47.216Z,6.50
2023-04-18T16:27:17.918Z,8.63
2023-04-18T16:29:49.328Z,5.85
2023-04-18T16:32:19.546Z,5.88
2023-04-18T16:34:50.171Z,5.93
2023-04-18T16:37:20.424Z,7.45
2023-04-18T16:39:50.747Z,6.03
2023-04-18T16:42:20.958Z,5.10
2023-04-18T16:44:52.643Z,6.65
2023-04-18T16:47:22.914Z,6.72
2023-04-18T16:49:54.288Z,6.13
2023-04-18T16:52:25.106Z,4.78
2023-04-18T16:54:56.438Z,6.65
2023-04-18T16:57:27.147Z,6.00
2023-04-18T16:59:57.648Z,5.65
2023-04-18T17:02:28.336Z,6.47
2023-04-18T17:04:58.754Z,4.72
2023-04-18T17:07:29.010Z,4.30
2023-04-18T17:09:59.293Z,7.15
2023-04-18T17:12:29.556Z,7.13
2023-04-18T17:15:00.247Z,6.15
2023-04-18T17:17:31.213Z,6.45
2023-04-18T17:20:02.198Z,5.32
2023-04-18T17:22:33.682Z,4.43
2023-04-18T17:25:04.710Z,4.78
2023-04-18T17:27:35.046Z,5.53
2023-04-18T17:30:05.386Z,5.10
2023-04-18T17:32:35.732Z,5.30
2023-04-18T17:35:08.083Z,5.75
2023-04-18T17:37:38.624Z,7.88
2023-04-18T17:40:11.454Z,4.18
2023-04-18T17:42:41.964Z,5.50
2023-04-18T17:45:13.127Z,5.72
2023-04-18T17:47:44.610Z,5.40
2023-04-18T17:50:15.467Z,5.90
2023-04-18T17:52:46.861Z,4.60
2023-04-18T17:55:17.522Z,5.13
2023-04-18T17:57:47.905Z,4.50
2023-04-18T18:00:19.086Z,6.10
2023-04-18T18:02:49.436Z,5.22
2023-04-18T18:05:20.170Z,5.93
2023-04-18T18:07:50.587Z,4.22
2023-04-18T18:10:22.681Z,9.32
2023-04-18T18:12:53.144Z,3.70
2023-04-18T18:15:24.054Z,3.47
2023-04-18T18:17:55.069Z,4.15
2023-04-18T18:20:25.819Z,5.65
2023-04-18T18:22:56.769Z,4.35
2023-04-18T18:25:28.085Z,5.03
2023-04-18T18:27:58.385Z,4.38
2023-04-18T18:30:29.082Z,4.82
2023-04-18T18:33:00.292Z,4.53
2023-04-18T18:35:31.011Z,5.70
2023-04-18T18:38:01.240Z,5.47
2023-04-18T18:40:31.554Z,3.97
2023-04-18T18:43:02.295Z,4.03
2023-04-18T18:45:33.048Z,4.60
2023-04-18T18:48:05.932Z,4.47
2023-04-18T18:50:53.212Z,4.43
2023-04-18T18:53:25.328Z,4.60
2023-04-18T18:55:57.163Z,2.85
2023-04-18T18:58:29.040Z,5.55
2023-04-18T19:01:01.160Z,3.95
2023-04-18T19:03:31.975Z,4.38
2023-04-18T19:06:06.211Z,5.43
2023-04-18T19:08:48.431Z,3.72
2023-04-18T19:11:20.083Z,4.90
2023-04-18T19:13:54.326Z,7.05
2023-04-18T19:16:26.531Z,5.60
2023-04-18T19:18:57.545Z,5.80
2023-04-18T19:21:29.603Z,5.10
2023-04-18T19:24:00.670Z,5.63
2023-04-18T19:26:30.979Z,4.32
2023-04-18T19:29:01.693Z,22.08
2023-04-18T19:31:32.105Z,5.20
2023-04-18T19:34:02.472Z,5.40
2023-04-18T19:36:33.672Z,5.90
2023-04-18T19:39:03.944Z,5.28
2023-04-18T19:41:34.147Z,3.83
2023-04-18T19:44:04.338Z,10.07
2023-04-18T19:46:34.843Z,5.82
2023-04-18T19:49:05.086Z,6.28
2023-04-18T19:51:35.450Z,3.65
2023-04-18T19:54:06.865Z,4.85
2023-04-18T19:56:37.217Z,3.75
2023-04-18T19:59:07.824Z,4.20
2023-04-18T20:01:38.761Z,3.92
2023-04-18T20:04:10.492Z,5.03
2023-04-18T20:06:40.859Z,2.95
2023-04-18T20:09:17.085Z,3.15
2023-04-18T20:11:48.690Z,4.22
2023-04-18T20:14:20.109Z,3.33
2023-04-18T20:16:51.749Z,5.18
2023-04-18T20:19:22.103Z,2.08
2023-04-18T20:21:52.710Z,3.35
2023-04-18T20:24:29.633Z,2.95
2023-04-18T20:27:01.629Z,3.13
2023-04-18T20:29:32.826Z,3.17
2023-04-18T20:32:03.815Z,2.75
2023-04-18T20:34:34.263Z,3.70
2023-04-18T20:37:05.397Z,3.45
2023-04-18T20:39:36.704Z,2.90
2023-04-18T20:42:08.042Z,5.65
2023-04-18T20:44:38.736Z,2.35
2023-04-18T20:47:09.681Z,4.85
2023-04-18T20:49:41.703Z,5.63
2023-04-18T20:52:12.426Z,5.72
2023-04-18T20:54:45.003Z,3.63
2023-04-18T20:57:15.654Z,5.85
2023-04-18T20:59:47.568Z,4.95
2023-04-18T21:02:18.358Z,5.57
2023-04-18T21:04:50.065Z,6.82
2023-04-18T21:07:22.410Z,5.25
2023-04-18T21:09:53.273Z,3.17
2023-04-18T21:12:24.730Z,4.53
2023-04-18T21:14:56.466Z,6.80
2023-04-18T21:17:27.888Z,5.05
2023-04-18T21:19:58.745Z,4.88
2023-04-18T21:22:31.057Z,12.20
2023-04-18T21:25:01.887Z,4.88
2023-04-18T21:27:34.407Z,3.83
2023-04-18T21:30:07.731Z,6.75
2023-04-18T21:32:38.513Z,4.28
2023-04-18T21:35:09.902Z,3.97
2023-04-18T21:37:41.516Z,5.28
2023-04-18T21:40:13.030Z,7.60
2023-04-18T21:42:43.868Z,2.25
2023-04-18T21:45:15.073Z,3.78
2023-04-18T21:47:47.893Z,3.60
2023-04-18T21:50:18.691Z,3.63
2023-04-18T21:52:49.439Z,4.03
2023-04-18T21:55:22.057Z,3.10
2023-04-18T21:57:52.747Z,4.30
2023-04-18T22:00:23.542Z,5.72
2023-04-18T22:02:54.895Z,6.40
2023-04-18T22:05:27.264Z,5.22
2023-04-18T22:08:00.310Z,4.82
2023-04-18T22:10:31.256Z,7.13
2023-04-18T22:13:03.981Z,9.15
2023-04-18T22:15:37.158Z,7.05
2023-04-18T22:18:11.534Z,3.42
2023-04-18T22:20:43.187Z,6.93
2023-04-18T22:23:14.334Z,5.45
2023-04-18T22:25:45.132Z,4.20
2023-04-18T22:28:15.986Z,6.65
2023-04-18T22:30:47.419Z,6.55
2023-04-18T22:33:19.049Z,5.95
2023-04-18T22:35:50.449Z,3.45
2023-04-18T22:38:41.121Z,4.00
2023-04-18T22:41:12.100Z,5.95
2023-04-18T22:43:42.893Z,5.88
2023-04-18T22:46:13.400Z,4.10
2023-04-18T22:48:44.236Z,4.88
2023-04-18T22:51:17.515Z,5.68
2023-04-18T22:53:49.902Z,3.40
2023-04-18T22:56:21.455Z,8.48
2023-04-18T22:58:52.088Z,3.67
2023-04-18T23:01:22.783Z,3.42
2023-04-18T23:03:53.640Z,5.93
2023-04-18T23:06:25.872Z,3.30
2023-04-18T23:08:57.698Z,5.18
2023-04-18T23:11:28.589Z,6.53
2023-04-18T23:13:59.192Z,5.25
2023-04-18T23:16:30.457Z,2.42
2023-04-18T23:19:02.015Z,3.50
2023-04-18T23:21:33.944Z,3.95
2023-04-18T23:24:04.839Z,2.80
2023-04-18T23:26:35.880Z,5.35
2023-04-18T23:29:07.035Z,6.53
2023-04-18T23:31:44.905Z,5.28
2023-04-18T23:34:16.008Z,4.47
2023-04-18T23:36:47.133Z,2.63
2023-04-18T23:39:20.474Z,6.20
2023-04-18T23:41:53.612Z,2.67
2023-04-18T23:44:24.070Z,4.32
2023-04-18T23:46:56.988Z,2.42
2023-04-18T23:49:29.288Z,4.65
2023-04-18T23:51:59.627Z,6.95
2023-04-18T23:54:40.956Z,7.05
2023-04-18T23:57:12.124Z,2.60
2023-04-18T23:59:44.191Z,5.22
